createdAt,value
2023-12-09T00:00:39.592Z,94.79
2023-12-09T00:03:08.431Z,94.74
2023-12-09T00:05:35.908Z,94.43
2023-12-09T00:08:02.552Z,94.79
2023-12-09T00:10:29.223Z,94.49
2023-12-09T00:12:56.151Z,94.57
2023-12-09T00:15:22.817Z,94.28
2023-12-09T00:17:50.352Z,94.34
2023-12-09T00:20:16.878Z,93.92
2023-12-09T00:22:43.384Z,94.31
2023-12-09T00:25:10.534Z,94.62
2023-12-09T00:27:37.028Z,94.14
2023-12-09T00:30:03.844Z,94.23
2023-12-09T00:32:30.825Z,94.59
2023-12-09T00:34:57.742Z,94.59
2023-12-09T00:37:24.227Z,93.88
2023-12-09T00:39:51.036Z,94.60
2023-12-09T00:42:17.711Z,94.36
2023-12-09T00:44:44.367Z,94.25
2023-12-09T00:47:10.917Z,94.38
2023-12-09T00:49:37.591Z,94.22
2023-12-09T00:52:04.422Z,93.97
2023-12-09T00:54:31.004Z,93.68
2023-12-09T00:56:57.636Z,94.39
2023-12-09T00:59:24.164Z,93.79
2023-12-09T01:01:50.723Z,94.22
2023-12-09T01:04:17.419Z,94.04
2023-12-09T01:06:44.177Z,93.28
2023-12-09T01:09:10.794Z,93.48
2023-12-09T01:11:37.378Z,93.98
2023-12-09T01:14:03.875Z,93.48
2023-12-09T01:16:31.258Z,93.16
2023-12-09T01:18:58.065Z,93.79
2023-12-09T01:21:24.671Z,93.71
2023-12-09T01:23:51.267Z,93.63
2023-12-09T01:26:17.827Z,93.41
2023-12-09T01:28:45.197Z,92.62
2023-12-09T01:31:11.747Z,92.90
2023-12-09T01:33:39.288Z,93.44
2023-12-09T01:36:06.143Z,93.52
2023-12-09T01:38:32.753Z,92.89
2023-12-09T01:40:59.264Z,93.70
2023-12-09T01:43:26.571Z,93.25
2023-12-09T01:45:55.830Z,93.07
2023-12-09T01:48:23.617Z,93.10
2023-12-09T01:50:50.733Z,92.80
2023-12-09T01:53:17.542Z,93.24
2023-12-09T01:55:44.129Z,93.33
2023-12-09T01:58:11.826Z,93.53
2023-12-09T02:00:40.831Z,93.35
2023-12-09T02:03:07.656Z,93.93
2023-12-09T02:09:21.299Z,93.67
2023-12-09T02:12:14.541Z,93.89
2023-12-09T02:14:56.133Z,93.93
2023-12-09T02:17:48.800Z,93.55
2023-12-09T02:20:15.594Z,93.93
2023-12-09T02:22:42.181Z,93.94
2023-12-09T02:25:09.253Z,93.96
2023-12-09T02:27:58.857Z,94.10
2023-12-09T02:30:42.230Z,93.95
2023-12-09T02:33:11.364Z,94.22
2023-12-09T02:35:41.381Z,93.91
2023-12-09T02:38:10.185Z,94.11
2023-12-09T02:40:37.670Z,93.73
2023-12-09T02:43:05.104Z,93.85
2023-12-09T02:45:31.741Z,93.38
2023-12-09T02:47:58.704Z,93.68
2023-12-09T02:50:25.276Z,93.89
2023-12-09T02:52:51.800Z,93.57
2023-12-09T02:55:18.699Z,93.48
2023-12-09T02:57:45.287Z,93.71
2023-12-09T03:00:12.415Z,93.91
2023-12-09T03:02:39.094Z,94.41
2023-12-09T03:05:05.887Z,94.09
2023-12-09T03:07:32.542Z,93.76
2023-12-09T03:09:59.084Z,93.78
2023-12-09T03:12:25.856Z,93.70
2023-12-09T03:14:54.101Z,93.54
2023-12-09T03:17:20.693Z,94.34
2023-12-09T03:19:47.347Z,94.58
2023-12-09T03:22:13.909Z,94.74
2023-12-09T03:24:43.672Z,94.60
2023-12-09T03:27:10.235Z,94.59
2023-12-09T03:29:37.525Z,94.37
2023-12-09T03:32:04.256Z,94.66
2023-12-09T03:34:31.078Z,94.44
2023-12-09T03:36:57.740Z,95.16
2023-12-09T03:39:24.411Z,94.56
2023-12-09T03:41:51.134Z,94.74
2023-12-09T03:44:17.834Z,95.02
2023-12-09T03:46:44.361Z,95.18
2023-12-09T03:49:11.051Z,95.35
2023-12-09T03:51:37.652Z,95.34
2023-12-09T03:54:05.171Z,95.13
2023-12-09T03:56:32.105Z,95.51
2023-12-09T03:58:58.610Z,95.39
2023-12-09T04:01:25.965Z,95.31
2023-12-09T04:03:53.122Z,95.54
2023-12-09T04:06:19.835Z,95.95
2023-12-09T04:08:46.359Z,95.43
2023-12-09T04:11:12.931Z,95.34
2023-12-09T04:13:41.516Z,95.65
2023-12-09T04:16:08.480Z,95.41
2023-12-09T04:18:35.605Z,95.30
2023-12-09T04:21:02.290Z,95.27
2023-12-09T04:23:28.866Z,95.43
2023-12-09T04:25:55.428Z,95.57
2023-12-09T04:28:22.016Z,95.78
2023-12-09T04:30:48.532Z,95.61
2023-12-09T04:33:15.124Z,95.66
2023-12-09T04:35:41.771Z,95.65
2023-12-09T04:38:08.476Z,95.84
2023-12-09T04:40:35.066Z,95.51
2023-12-09T04:43:01.590Z,95.92
2023-12-09T04:45:28.121Z,95.62
2023-12-09T04:47:54.858Z,95.95
2023-12-09T04:50:22.087Z,95.92
2023-12-09T04:52:48.595Z,95.55
2023-12-09T04:55:15.261Z,95.72
2023-12-09T04:57:44.166Z,95.67
2023-12-09T05:00:12.776Z,96.21
2023-12-09T05:02:39.448Z,95.92
2023-12-09T05:05:06.366Z,96.08
2023-12-09T05:07:33.962Z,96.39
2023-12-09T05:10:00.483Z,96.36
2023-12-09T05:12:28.116Z,96.50
2023-12-09T05:14:54.932Z,96.51
2023-12-09T05:17:21.424Z,96.43
2023-12-09T05:19:48.320Z,96.64
2023-12-09T05:22:16.029Z,97.00
2023-12-09T05:24:43.275Z,97.01
2023-12-09T05:27:09.872Z,96.74
2023-12-09T05:29:36.426Z,96.94
2023-12-09T05:32:04.120Z,97.47
2023-12-09T05:34:30.753Z,97.24
2023-12-09T05:36:57.274Z,97.25
2023-12-09T05:39:23.843Z,96.97
2023-12-09T05:41:50.571Z,97.03
2023-12-09T05:44:17.085Z,97.29
2023-12-09T05:46:43.583Z,96.91
2023-12-09T05:49:10.596Z,97.07
2023-12-09T05:51:38.135Z,97.21
2023-12-09T05:54:04.830Z,96.65
2023-12-09T05:56:31.465Z,96.94
2023-12-09T05:58:58.015Z,96.89
2023-12-09T06:01:24.550Z,96.89
2023-12-09T06:03:51.104Z,97.02
2023-12-09T06:06:17.918Z,96.52
2023-12-09T06:08:44.753Z,96.66
2023-12-09T06:11:11.698Z,96.62
2023-12-09T06:13:39.058Z,96.87
2023-12-09T06:16:05.757Z,96.77
2023-12-09T06:18:33.418Z,96.69
2023-12-09T06:21:00.012Z,96.96
2023-12-09T06:23:27.577Z,96.46
2023-12-09T06:25:54.185Z,96.72
2023-12-09T06:28:20.691Z,96.50
2023-12-09T06:30:47.351Z,96.64
2023-12-09T06:33:14.170Z,96.63
2023-12-09T06:35:40.740Z,96.54
2023-12-09T06:38:07.250Z,96.54
2023-12-09T06:40:33.829Z,96.33
2023-12-09T06:43:00.366Z,96.42
2023-12-09T06:45:27.295Z,96.24
2023-12-09T06:47:55.248Z,96.36
2023-12-09T06:50:22.460Z,96.06
2023-12-09T06:52:49.061Z,96.12
2023-12-09T06:55:15.642Z,96.23
2023-12-09T06:57:42.841Z,96.24
2023-12-09T07:00:09.886Z,96.13
2023-12-09T07:02:45.040Z,95.80
2023-12-09T07:05:20.054Z,95.74
2023-12-09T07:07:46.862Z,95.91
2023-12-09T07:10:13.351Z,96.01
2023-12-09T07:12:39.887Z,95.84
2023-12-09T07:15:07.784Z,96.41
2023-12-09T07:17:34.386Z,96.07
2023-12-09T07:20:01.007Z,96.06
2023-12-09T07:22:27.839Z,95.91
2023-12-09T07:24:54.566Z,95.89
2023-12-09T07:27:21.112Z,96.31
2023-12-09T07:29:47.665Z,96.00
2023-12-09T07:32:15.097Z,96.27
2023-12-09T07:34:41.717Z,96.31
2023-12-09T07:37:11.125Z,96.22
2023-12-09T07:39:43.718Z,96.22
2023-12-09T07:42:11.455Z,96.02
2023-12-09T07:44:38.047Z,96.05
2023-12-09T07:47:05.352Z,95.83
2023-12-09T07:49:32.232Z,96.03
2023-12-09T07:51:58.927Z,95.71
2023-12-09T07:54:25.568Z,95.94
2023-12-09T07:56:52.152Z,95.65
2023-12-09T07:59:18.679Z,95.65
2023-12-09T08:01:45.743Z,95.19
2023-12-09T08:04:13.821Z,95.02
2023-12-09T08:06:40.666Z,94.91
2023-12-09T08:09:08.391Z,94.98
2023-12-09T08:11:35.979Z,94.98
2023-12-09T08:14:02.645Z,94.75
2023-12-09T08:16:29.215Z,94.89
2023-12-09T08:18:55.925Z,94.72
2023-12-09T08:21:22.664Z,94.36
2023-12-09T08:23:49.260Z,94.26
2023-12-09T08:26:19.403Z,94.46
2023-12-09T08:28:46.716Z,93.84
2023-12-09T08:31:13.629Z,93.71
2023-12-09T08:33:41.218Z,94.16
2023-12-09T08:36:08.449Z,93.96
2023-12-09T08:38:35.445Z,94.24
2023-12-09T08:41:02.314Z,93.82
2023-12-09T08:43:28.976Z,93.78
2023-12-09T08:45:55.647Z,93.84
2023-12-09T08:48:22.374Z,93.55
2023-12-09T08:50:49.065Z,93.23
2023-12-09T08:53:15.623Z,93.36
2023-12-09T08:55:42.384Z,93.12
2023-12-09T08:58:09.097Z,92.95
2023-12-09T09:00:35.628Z,93.32
2023-12-09T09:03:04.549Z,93.05
2023-12-09T09:05:31.281Z,93.08
2023-12-09T09:07:58.634Z,93.30
2023-12-09T09:10:25.225Z,92.48
2023-12-09T09:12:51.764Z,92.93
2023-12-09T09:15:18.612Z,93.00
2023-12-09T09:17:45.241Z,93.06
2023-12-09T09:20:12.000Z,92.71
2023-12-09T09:22:39.008Z,92.57
2023-12-09T09:25:06.162Z,92.86
2023-12-09T09:27:33.028Z,92.54
2023-12-09T09:29:59.876Z,93.18
2023-12-09T09:32:26.778Z,93.06
2023-12-09T09:34:53.769Z,93.29
2023-12-09T09:37:21.275Z,93.22
2023-12-09T09:39:48.483Z,93.39
2023-12-09T09:42:21.117Z,93.11
2023-12-09T09:45:11.392Z,93.59
2023-12-09T09:47:38.464Z,93.30
2023-12-09T09:50:09.685Z,93.58
2023-12-09T09:52:37.930Z,93.35
2023-12-09T09:55:07.644Z,93.25
2023-12-09T09:57:35.374Z,93.10
2023-12-09T10:00:02.408Z,92.82
2023-12-09T10:02:29.718Z,92.91
2023-12-09T10:04:56.449Z,92.89
2023-12-09T10:07:23.746Z,92.12
2023-12-09T10:09:51.039Z,92.17
2023-12-09T10:12:17.627Z,92.79
2023-12-09T10:14:44.396Z,92.33
2023-12-09T10:17:12.297Z,92.35
2023-12-09T10:19:39.867Z,92.71
2023-12-09T10:22:06.455Z,91.69
2023-12-09T10:24:33.114Z,92.47
2023-12-09T10:27:01.195Z,92.19
2023-12-09T10:29:27.767Z,92.28
2023-12-09T10:31:54.367Z,92.08
2023-12-09T10:34:21.619Z,92.44
2023-12-09T10:36:48.347Z,92.23
2023-12-09T10:39:14.969Z,92.34
2023-12-09T10:41:46.719Z,92.46
2023-12-09T10:44:13.237Z,92.72
2023-12-09T10:46:39.932Z,92.47
2023-12-09T10:49:06.593Z,92.39
2023-12-09T10:51:33.406Z,92.25
2023-12-09T10:54:00.152Z,92.23
2023-12-09T10:56:27.743Z,92.59
2023-12-09T10:58:56.904Z,92.07
2023-12-09T11:01:24.020Z,92.44
2023-12-09T11:03:50.710Z,92.38
2023-12-09T11:06:21.217Z,92.57
2023-12-09T11:08:48.426Z,92.35
2023-12-09T11:11:17.812Z,92.19
2023-12-09T11:13:47.354Z,92.06
2023-12-09T11:16:22.150Z,91.74
2023-12-09T11:18:54.308Z,92.15
2023-12-09T11:21:23.436Z,91.45
2023-12-09T11:23:54.721Z,91.08
2023-12-09T11:26:32.157Z,90.94
2023-12-09T11:29:11.553Z,90.92
2023-12-09T11:31:40.150Z,90.88
2023-12-09T11:34:08.704Z,90.84
2023-12-09T11:36:37.939Z,90.62
2023-12-09T11:39:10.081Z,90.18
2023-12-09T11:41:41.536Z,90.72
2023-12-09T11:44:10.008Z,90.06
2023-12-09T11:46:37.264Z,89.96
2023-12-09T11:49:05.319Z,89.93
2023-12-09T11:51:34.871Z,89.30
2023-12-09T11:54:03.485Z,89.58
2023-12-09T11:56:31.050Z,89.98
2023-12-09T11:58:58.287Z,89.84
2023-12-09T12:01:26.325Z,90.20
2023-12-09T12:03:53.696Z,89.86
2023-12-09T12:06:23.245Z,89.89
2023-12-09T12:08:51.950Z,90.36
2023-12-09T12:11:23.136Z,90.06
2023-12-09T12:13:51.157Z,89.77
2023-12-09T12:16:17.957Z,90.05
2023-12-09T12:18:46.161Z,89.84
2023-12-09T12:21:12.946Z,89.89
2023-12-09T12:23:42.527Z,90.05
2023-12-09T12:26:14.778Z,90.02
2023-12-09T12:28:41.656Z,89.73
2023-12-09T12:31:11.881Z,90.07
2023-12-09T12:33:38.571Z,89.93
2023-12-09T12:36:06.268Z,90.11
2023-12-09T12:38:33.569Z,89.78
2023-12-09T12:41:00.208Z,89.82
2023-12-09T12:43:32.042Z,89.63
2023-12-09T12:46:00.018Z,90.07
2023-12-09T12:48:27.225Z,90.60
2023-12-09T12:50:54.571Z,90.72
2023-12-09T12:53:24.341Z,90.85
2023-12-09T12:55:52.905Z,90.86
2023-12-09T12:58:19.665Z,90.97
2023-12-09T13:00:51.034Z,90.83
2023-12-09T13:03:18.107Z,91.08
2023-12-09T13:05:44.903Z,90.80
2023-12-09T13:08:11.732Z,90.61
2023-12-09T13:10:38.421Z,90.63
2023-12-09T13:13:06.921Z,90.40
2023-12-09T13:15:34.440Z,89.99
2023-12-09T13:18:02.873Z,89.72
2023-12-09T13:20:30.243Z,89.54
2023-12-09T13:22:57.238Z,89.55
2023-12-09T13:25:23.931Z,89.59
2023-12-09T13:27:50.691Z,89.43
2023-12-09T13:30:17.381Z,89.56
2023-12-09T13:32:45.495Z,89.52
2023-12-09T13:35:12.192Z,89.30
2023-12-09T13:37:39.487Z,89.56
2023-12-09T13:40:08.378Z,89.21
2023-12-09T13:42:35.374Z,89.14
2023-12-09T13:45:02.224Z,89.48
2023-12-09T13:47:28.872Z,89.67
2023-12-09T13:49:56.380Z,89.70
2023-12-09T13:52:23.880Z,89.63
2023-12-09T13:54:52.097Z,89.86
2023-12-09T13:57:18.738Z,89.99
2023-12-09T13:59:45.304Z,89.64
2023-12-09T14:02:12.732Z,89.72
2023-12-09T14:04:39.580Z,89.37
2023-12-09T14:07:06.169Z,89.55
2023-12-09T14:09:32.768Z,89.54
2023-12-09T14:12:01.863Z,89.28
2023-12-09T14:14:30.625Z,89.39
2023-12-09T14:16:57.202Z,89.38
2023-12-09T14:19:25.532Z,89.48
2023-12-09T14:21:52.482Z,89.64
2023-12-09T14:24:19.414Z,89.70
2023-12-09T14:26:46.261Z,89.38
2023-12-09T14:29:12.865Z,89.82
2023-12-09T14:31:39.881Z,90.02
2023-12-09T14:34:07.298Z,89.82
2023-12-09T14:36:34.899Z,89.63
2023-12-09T14:39:01.916Z,89.72
2023-12-09T14:41:28.528Z,89.52
2023-12-09T14:43:59.786Z,89.63
2023-12-09T14:46:32.475Z,89.55
2023-12-09T14:48:59.205Z,89.50
2023-12-09T14:53:55.272Z,89.72
2023-12-09T14:56:22.039Z,90.34
2023-12-09T14:58:48.813Z,90.07
2023-12-09T15:01:15.467Z,90.47
2023-12-09T15:03:42.758Z,90.53
2023-12-09T15:06:09.656Z,90.59
2023-12-09T15:08:36.422Z,90.97
2023-12-09T15:11:03.244Z,91.03
2023-12-09T15:13:30.029Z,91.39
2023-12-09T15:15:56.709Z,91.68
2023-12-09T15:18:23.386Z,92.01
2023-12-09T15:20:52.216Z,92.05
2023-12-09T15:23:18.884Z,92.36
2023-12-09T15:25:46.009Z,92.56
2023-12-09T15:28:13.044Z,92.92
2023-12-09T15:30:40.615Z,93.07
2023-12-09T15:33:07.317Z,93.16
2023-12-09T15:35:35.592Z,93.21
2023-12-09T15:38:03.356Z,93.41
2023-12-09T15:40:29.883Z,93.67
2023-12-09T15:42:56.495Z,93.46
2023-12-09T15:45:23.127Z,93.24
2023-12-09T15:47:49.811Z,93.70
2023-12-09T15:50:16.431Z,93.48
2023-12-09T15:52:43.615Z,93.66
2023-12-09T15:55:10.468Z,93.44
2023-12-09T15:57:37.986Z,93.60
2023-12-09T16:00:06.332Z,93.93
2023-12-09T16:02:33.760Z,93.78
2023-12-09T16:05:00.425Z,93.72
2023-12-09T16:07:27.190Z,94.13
2023-12-09T16:09:58.027Z,94.06
2023-12-09T16:12:26.096Z,94.02
2023-12-09T16:14:55.163Z,94.29
2023-12-09T16:17:22.244Z,94.05
2023-12-09T16:19:49.059Z,93.87
2023-12-09T16:22:18.781Z,94.08
2023-12-09T16:24:47.347Z,94.06
2023-12-09T16:27:15.499Z,94.32
2023-12-09T16:29:42.073Z,94.34
2023-12-09T16:32:11.477Z,94.15
2023-12-09T16:34:39.073Z,94.22
2023-12-09T16:37:05.746Z,93.94
2023-12-09T16:39:32.492Z,93.80
2023-12-09T16:41:59.325Z,93.50
2023-12-09T16:44:26.006Z,93.41
2023-12-09T16:46:52.999Z,93.17
2023-12-09T16:49:19.751Z,92.79
2023-12-09T16:51:46.549Z,92.87
2023-12-09T16:54:13.303Z,92.53
2023-12-09T16:56:40.030Z,92.70
2023-12-09T16:59:12.072Z,92.16
2023-12-09T17:01:39.363Z,92.14
2023-12-09T17:04:06.735Z,92.17
2023-12-09T17:06:34.131Z,92.38
2023-12-09T17:09:01.087Z,91.84
2023-12-09T17:11:28.098Z,91.99
2023-12-09T17:13:54.901Z,92.02
2023-12-09T17:16:21.585Z,91.71
2023-12-09T17:18:48.533Z,91.75
2023-12-09T17:21:15.222Z,91.75
2023-12-09T17:23:42.167Z,91.87
2023-12-09T17:26:08.823Z,91.71
2023-12-09T17:28:35.472Z,91.25
2023-12-09T17:31:02.346Z,91.30
2023-12-09T17:33:29.080Z,91.40
2023-12-09T17:35:56.105Z,91.54
2023-12-09T17:38:22.749Z,91.52
2023-12-09T17:40:49.344Z,91.51
2023-12-09T17:43:16.069Z,91.85
2023-12-09T17:45:42.708Z,91.97
2023-12-09T17:48:09.417Z,91.73
2023-12-09T17:50:36.117Z,91.60
2023-12-09T17:53:02.676Z,91.61
2023-12-09T17:55:29.675Z,91.70
2023-12-09T17:57:58.245Z,91.89
2023-12-09T18:00:24.972Z,91.22
2023-12-09T18:02:51.606Z,91.19
2023-12-09T18:05:19.035Z,91.27
2023-12-09T18:07:45.601Z,91.29
2023-12-09T18:10:13.427Z,91.25
2023-12-09T18:12:41.063Z,91.06
2023-12-09T18:15:08.259Z,90.91
2023-12-09T18:17:35.152Z,91.20
2023-12-09T18:20:02.638Z,91.03
2023-12-09T18:22:29.358Z,90.50
2023-12-09T18:24:56.147Z,90.79
2023-12-09T18:27:23.004Z,90.30
2023-12-09T18:29:49.791Z,90.45
2023-12-09T18:32:17.782Z,90.18
2023-12-09T18:34:44.639Z,89.85
2023-12-09T18:37:12.641Z,90.16
2023-12-09T18:39:39.724Z,90.16
2023-12-09T18:42:06.781Z,90.11
2023-12-09T18:44:33.440Z,90.28
2023-12-09T18:47:00.068Z,90.21
2023-12-09T18:49:26.690Z,89.63
2023-12-09T18:51:53.718Z,89.80
2023-12-09T18:54:20.307Z,89.89
2023-12-09T18:56:47.114Z,89.72
2023-12-09T18:59:16.124Z,89.59
2023-12-09T19:01:44.023Z,89.87
2023-12-09T19:04:11.155Z,89.73
2023-12-09T19:06:45.785Z,89.88
2023-12-09T19:09:20.533Z,89.75
2023-12-09T19:11:47.266Z,89.88
2023-12-09T19:14:13.860Z,89.57
2023-12-09T19:16:41.559Z,89.38
2023-12-09T19:19:08.375Z,89.64
2023-12-09T19:21:39.213Z,90.24
2023-12-09T19:24:06.396Z,89.65
2023-12-09T19:26:34.383Z,89.67
2023-12-09T19:29:02.699Z,90.36
2023-12-09T19:31:29.666Z,89.31
2023-12-09T19:33:56.470Z,90.15
2023-12-09T19:36:23.211Z,90.13
2023-12-09T19:38:50.603Z,90.18
2023-12-09T19:41:17.164Z,89.90
2023-12-09T19:43:44.103Z,90.12
2023-12-09T19:46:10.708Z,89.85
2023-12-09T19:48:39.464Z,89.82
2023-12-09T19:51:06.438Z,90.06
2023-12-09T19:53:33.095Z,89.86
2023-12-09T19:55:59.900Z,89.91
2023-12-09T19:58:26.540Z,89.63
2023-12-09T20:00:53.291Z,89.80
2023-12-09T20:03:20.382Z,89.96
2023-12-09T20:05:47.035Z,90.22
2023-12-09T20:08:14.434Z,90.11
2023-12-09T20:10:42.448Z,89.86
2023-12-09T20:13:09.166Z,90.05
2023-12-09T20:15:35.826Z,90.18
2023-12-09T20:18:02.549Z,89.49
2023-12-09T20:20:30.372Z,89.80
2023-12-09T20:22:59.924Z,89.99
2023-12-09T20:25:26.535Z,89.66
2023-12-09T20:27:53.407Z,89.88
2023-12-09T20:30:20.277Z,89.95
2023-12-09T20:32:47.482Z,90.08
2023-12-09T20:35:14.959Z,90.06
2023-12-09T20:37:41.898Z,90.28
2023-12-09T20:40:08.966Z,90.02
2023-12-09T20:42:35.928Z,89.84
2023-12-09T20:45:04.930Z,89.97
2023-12-09T20:47:31.503Z,90.04
2023-12-09T20:49:58.147Z,91.19
2023-12-09T20:52:25.002Z,91.58
2023-12-09T20:54:51.741Z,91.68
2023-12-09T20:57:18.435Z,92.09
2023-12-09T20:59:47.480Z,92.16
2023-12-09T21:02:14.058Z,92.42
2023-12-09T21:04:45.226Z,92.97
2023-12-09T21:07:12.089Z,93.58
2023-12-09T21:09:41.361Z,93.52
2023-12-09T21:12:09.167Z,93.79
2023-12-09T21:14:35.827Z,93.52
2023-12-09T21:17:02.581Z,93.78
2023-12-09T21:19:32.208Z,93.92
2023-12-09T21:21:58.912Z,94.11
2023-12-09T21:24:25.506Z,93.69
2023-12-09T21:26:53.264Z,93.66
2023-12-09T21:29:20.885Z,93.11
2023-12-09T21:31:47.514Z,93.62
2023-12-09T21:34:14.674Z,93.08
2023-12-09T21:36:41.774Z,93.88
2023-12-09T21:39:09.983Z,94.06
2023-12-09T21:41:36.728Z,93.93
2023-12-09T21:44:03.474Z,93.53
2023-12-09T21:46:30.708Z,93.93
2023-12-09T21:48:57.949Z,93.12
2023-12-09T21:51:24.884Z,93.78
2023-12-09T21:53:51.670Z,93.65
2023-12-09T21:56:22.804Z,93.86
2023-12-09T21:58:50.343Z,93.59
2023-12-09T22:01:20.469Z,93.21
2023-12-09T22:03:47.916Z,93.50
2023-12-09T22:06:14.904Z,93.66
2023-12-09T22:08:42.678Z,92.98
2023-12-09T22:11:10.319Z,93.24
2023-12-09T22:13:36.979Z,92.73
2023-12-09T22:16:04.876Z,92.12
2023-12-09T22:18:31.719Z,92.42
2023-12-09T22:21:01.715Z,92.29
2023-12-09T22:23:28.559Z,93.07
2023-12-09T22:25:55.472Z,92.67
2023-12-09T22:28:22.590Z,92.56
2023-12-09T22:30:49.285Z,92.81
2023-12-09T22:33:16.006Z,92.83
2023-12-09T22:35:43.435Z,92.82
2023-12-09T22:38:10.018Z,93.10
2023-12-09T22:40:37.481Z,93.28
2023-12-09T22:43:04.290Z,93.60
2023-12-09T22:45:30.850Z,92.93
2023-12-09T22:47:57.662Z,92.61
2023-12-09T22:50:24.457Z,92.78
2023-12-09T22:52:51.084Z,93.21
2023-12-09T22:55:17.711Z,92.62
2023-12-09T22:57:45.628Z,92.86
2023-12-09T23:00:18.969Z,92.90
2023-12-09T23:02:45.511Z,92.44
2023-12-09T23:05:12.135Z,92.52
2023-12-09T23:07:38.661Z,92.33
2023-12-09T23:10:05.901Z,92.89
2023-12-09T23:12:32.809Z,92.60
2023-12-09T23:14:59.400Z,92.57
2023-12-09T23:17:26.001Z,93.08
2023-12-09T23:19:52.668Z,93.25
2023-12-09T23:22:19.219Z,92.98
2023-12-09T23:24:45.821Z,92.37
2023-12-09T23:27:12.409Z,93.33
2023-12-09T23:29:39.023Z,93.26
2023-12-09T23:32:06.668Z,93.52
2023-12-09T23:34:33.298Z,93.35
2023-12-09T23:36:59.899Z,93.50
2023-12-09T23:39:26.545Z,93.86
2023-12-09T23:41:53.780Z,93.57
2023-12-09T23:44:22.430Z,94.04
2023-12-09T23:46:49.008Z,94.05
2023-12-09T23:49:15.528Z,93.99
2023-12-09T23:51:42.121Z,93.82
2023-12-09T23:54:08.677Z,94.09
2023-12-09T23:56:35.247Z,94.85
2023-12-09T23:59:01.778Z,94.68
